Time;durP1;ratioP1;P1;durP2;ratioP2;P2;SDS_P1;SDS_P2;PMS_P1;PMS_P2;Temp;Humidity;BMP_temperature;BMP_pressure;BME280_temperature;BME280_humidity;BME280_pressure;Samples;Min_cycle;Max_cycle;Signal;HPM_P1;HPM_P2
2022/06/20 00:00:18;;;;;;;10.48;1.77;;;;;;;13.77;98.53;101265.88;5071747;28;20054;-50
2022/06/20 00:02:49;;;;;;;9.77;1.80;;;;;;;13.84;98.14;101277.72;5070505;28;20446;-52
2022/06/20 00:05:20;;;;;;;9.75;1.92;;;;;;;13.78;98.91;101278.16;5070980;28;20043;-46
2022/06/20 00:07:48;;;;;;;6.97;1.48;;;;;;;13.77;98.22;101277.31;5072899;28;20055;-47
2022/06/20 00:10:19;;;;;;;8.25;1.60;;;;;;;13.72;98.68;101283.91;5075380;28;20418;-49
2022/06/20 00:12:49;;;;;;;8.10;1.40;;;;;;;13.74;98.46;101287.25;5074540;28;20055;-48
2022/06/20 00:15:24;;;;;;;8.02;2.10;;;;;;;13.77;98.80;101293.19;5070030;28;20060;-51
2022/06/20 00:17:53;;;;;;;8.65;2.05;;;;;;;13.75;99.55;101300.34;5072405;28;20055;-46
2022/06/20 00:20:22;;;;;;;7.47;1.85;;;;;;;13.77;99.71;101305.53;5075213;28;20040;-50
2022/06/20 00:22:51;;;;;;;8.48;1.80;;;;;;;13.77;99.47;101292.31;5074919;28;20063;-48
2022/06/20 00:25:19;;;;;;;7.32;2.05;;;;;;;13.75;98.67;101283.66;5075099;28;20140;-49
2022/06/20 00:27:51;;;;;;;9.55;1.55;;;;;;;13.61;99.06;101290.78;5074023;28;20044;-48
2022/06/20 00:30:19;;;;;;;8.65;2.03;;;;;;;13.56;99.60;101284.13;5074893;28;20044;-50
2022/06/20 00:32:47;;;;;;;8.73;1.92;;;;;;;13.64;99.12;101285.25;5074713;28;20501;-49
2022/06/20 00:35:16;;;;;;;7.32;1.75;;;;;;;13.66;99.35;101280.72;5075069;28;20052;-51
2022/06/20 00:37:44;;;;;;;10.38;1.70;;;;;;;13.77;99.14;101273.81;5074894;28;20048;-47
2022/06/20 00:40:22;;;;;;;9.32;1.83;;;;;;;13.66;100.00;101278.09;5073478;28;20079;-49
2022/06/20 00:42:52;;;;;;;11.13;2.38;;;;;;;13.62;99.42;101278.38;5074541;28;20040;-48
2022/06/20 00:45:23;;;;;;;13.07;2.22;;;;;;;13.56;100.00;101287.59;5074823;28;20048;-52
2022/06/20 00:47:53;;;;;;;10.38;1.70;;;;;;;13.49;99.89;101289.00;5074481;28;20072;-53
2022/06/20 00:50:25;;;;;;;8.52;1.88;;;;;;;13.54;99.46;101292.16;5074743;28;20045;-50
2022/06/20 00:53:09;;;;;;;6.55;1.58;;;;;;;13.48;99.82;101292.59;5074506;28;20044;-53
2022/06/20 00:55:41;;;;;;;6.07;1.50;;;;;;;13.54;100.00;101294.81;5073894;28;20045;-52
2022/06/20 00:58:18;;;;;;;6.95;1.70;;;;;;;13.49;100.00;101284.53;5074038;28;20045;-50
2022/06/20 01:00:46;;;;;;;7.53;1.73;;;;;;;13.52;100.00;101289.63;5069795;28;20517;-54
2022/06/20 01:03:18;;;;;;;7.75;1.50;;;;;;;13.57;100.00;101296.41;5071760;28;20112;-47
2022/06/20 01:05:51;;;;;;;8.13;1.98;;;;;;;13.65;99.04;101304.63;5074294;28;20123;-51
2022/06/20 01:08:23;;;;;;;7.28;2.13;;;;;;;13.67;99.03;101311.50;5071542;28;20060;-47
2022/06/20 01:10:55;;;;;;;6.28;1.60;;;;;;;13.67;99.90;101315.91;5070020;28;20118;-49
2022/06/20 01:13:25;;;;;;;7.97;1.70;;;;;;;13.55;99.59;101335.28;5073209;28;20060;-47
2022/06/20 01:15:58;;;;;;;10.73;1.98;;;;;;;13.53;99.60;101345.97;5073925;28;20076;-50
2022/06/20 01:18:29;;;;;;;12.27;2.00;;;;;;;13.53;98.98;101353.88;5074094;28;20539;-51
2022/06/20 01:20:59;;;;;;;7.45;1.75;;;;;;;13.49;99.05;101358.53;5073940;28;20498;-52
2022/06/20 01:23:39;;;;;;;10.25;1.80;;;;;;;13.49;99.64;101378.84;5069175;28;20830;-47
2022/06/20 01:26:29;;;;;;;9.40;2.40;;;;;;;13.53;100.00;101391.72;5071882;28;20048;-48
2022/06/20 01:29:02;;;;;;;7.35;1.67;;;;;;;13.53;100.00;101401.44;5072520;28;20063;-49
2022/06/20 01:31:35;;;;;;;6.00;1.50;;;;;;;13.52;100.00;101415.59;5074141;28;20052;-51
2022/06/20 01:34:03;;;;;;;7.60;1.52;;;;;;;13.55;100.00;101425.97;5072412;28;20135;-51
2022/06/20 01:39:22;;;;;;;8.93;2.20;;;;;;;13.39;100.00;101428.81;5071926;28;20048;-48
2022/06/20 01:44:42;;;;;;;7.40;1.60;;;;;;;13.46;100.00;101422.16;5069424;28;20062;-51
2022/06/20 01:47:10;;;;;;;7.82;1.63;;;;;;;13.46;100.00;101422.16;5068450;28;20102;-49
2022/06/20 01:49:41;;;;;;;8.65;1.88;;;;;;;13.51;100.00;101403.34;5073430;28;20090;-46
2022/06/20 01:52:15;;;;;;;5.43;1.65;;;;;;;13.40;100.00;101403.25;5073264;28;20539;-47
2022/06/20 01:54:45;;;;;;;6.72;1.60;;;;;;;13.34;100.00;101389.47;5073185;28;20082;-51
2022/06/20 01:57:16;;;;;;;11.95;2.00;;;;;;;13.34;100.00;101375.41;5073142;28;20495;-53
2022/06/20 01:59:52;;;;;;;4.35;1.73;;;;;;;13.33;100.00;101386.94;5071947;28;20057;-47
2022/06/20 02:02:20;;;;;;;9.52;1.75;;;;;;;13.39;100.00;101385.69;5073186;28;20045;-50
2022/06/20 02:04:49;;;;;;;6.65;1.60;;;;;;;13.42;100.00;101378.41;5073290;28;20133;-46
2022/06/20 02:07:17;;;;;;;9.38;1.90;;;;;;;13.42;100.00;101381.06;5073326;28;20052;-50
2022/06/20 02:09:46;;;;;;;10.20;2.20;;;;;;;13.45;100.00;101372.91;5073150;28;20464;-48
2022/06/20 02:12:17;;;;;;;11.13;1.70;;;;;;;13.42;100.00;101364.38;5073081;28;20041;-51
2022/06/20 02:14:51;;;;;;;8.60;1.92;;;;;;;13.36;100.00;101365.59;5071781;28;20052;-50
2022/06/20 02:17:23;;;;;;;8.43;1.70;;;;;;;13.38;100.00;101368.16;5073107;28;20102;-48
2022/06/20 02:19:55;;;;;;;8.32;2.00;;;;;;;13.31;100.00;101362.44;5069167;28;20130;-49
2022/06/20 02:22:25;;;;;;;7.90;1.83;;;;;;;13.27;100.00;101359.13;5070135;28;20048;-49
2022/06/20 02:24:59;;;;;;;10.40;2.20;;;;;;;13.39;100.00;101362.78;5072800;28;20040;-49
2022/06/20 02:27:33;;;;;;;8.07;1.73;;;;;;;13.35;100.00;101361.25;5071144;28;20385;-48
2022/06/20 02:30:04;;;;;;;10.35;1.85;;;;;;;13.34;100.00;101365.69;5072708;28;20548;-48
2022/06/20 02:32:36;;;;;;;7.43;1.73;;;;;;;13.29;100.00;101366.94;5072949;28;20055;-49
2022/06/20 02:35:09;;;;;;;10.98;1.92;;;;;;;13.30;100.00;101369.50;5071261;28;20055;-48
2022/06/20 02:37:38;;;;;;;8.93;1.70;;;;;;;13.27;100.00;101359.13;5069153;28;20121;-52
2022/06/20 02:40:10;;;;;;;8.02;2.05;;;;;;;13.29;100.00;101353.75;5071523;28;21133;-50
2022/06/20 02:42:44;;;;;;;8.05;2.15;;;;;;;13.30;100.00;101347.53;5072703;28;20044;-51
2022/06/20 02:45:15;;;;;;;7.68;1.90;;;;;;;13.29;100.00;101344.03;5072475;28;20052;-50
2022/06/20 02:47:47;;;;;;;10.32;1.77;;;;;;;13.29;100.00;101341.41;5072503;28;20121;-51
2022/06/20 02:50:18;;;;;;;6.77;2.13;;;;;;;13.30;100.00;101329.88;5072298;28;20052;-49
2022/06/20 02:52:58;;;;;;;8.32;1.50;;;;;;;13.28;100.00;101325.63;5069300;28;20068;-48
2022/06/20 02:55:28;;;;;;;11.05;2.47;;;;;;;13.33;100.00;101326.16;5069670;28;20544;-48
2022/06/20 02:57:59;;;;;;;8.38;2.42;;;;;;;13.26;100.00;101315.19;5070885;28;20871;-52
2022/06/20 03:00:35;;;;;;;5.43;1.67;;;;;;;13.30;100.00;101308.72;5068083;28;20595;-49
2022/06/20 03:03:09;;;;;;;8.70;1.95;;;;;;;13.28;100.00;101299.22;5070926;28;20037;-49
2022/06/20 03:05:38;;;;;;;12.18;2.20;;;;;;;13.22;100.00;101289.09;5072131;28;20388;-49
2022/06/20 03:08:06;;;;;;;10.70;2.17;;;;;;;13.20;100.00;101281.28;5071327;28;20549;-49
2022/06/20 03:10:39;;;;;;;10.35;2.13;;;;;;;13.22;100.00;101270.63;5068422;28;20049;-49
2022/06/20 03:13:09;;;;;;;9.73;2.30;;;;;;;13.10;100.00;101264.38;5069225;28;20083;-50
2022/06/20 03:15:40;;;;;;;9.60;2.13;;;;;;;13.12;100.00;101259.84;5072530;28;20686;-51
2022/06/20 03:18:08;;;;;;;11.95;2.22;;;;;;;13.06;100.00;101266.41;5071718;28;20052;-51
2022/06/20 03:20:36;;;;;;;7.53;2.00;;;;;;;13.06;100.00;101265.53;5069049;28;20060;-51
2022/06/20 03:23:09;;;;;;;7.40;1.70;;;;;;;13.06;100.00;101257.63;5070322;28;20055;-51
2022/06/20 03:25:40;;;;;;;8.25;1.65;;;;;;;12.99;100.00;101250.13;5069777;28;20049;-47
2022/06/20 03:28:13;;;;;;;5.43;1.70;;;;;;;13.01;100.00;101248.22;5067595;28;20064;-49
2022/06/20 03:31:03;;;;;;;6.60;1.75;;;;;;;12.98;100.00;101237.88;5071796;28;20534;-49
2022/06/20 03:33:32;;;;;;;7.97;1.83;;;;;;;12.99;100.00;101239.56;5071810;28;20090;-48
2022/06/20 03:36:05;;;;;;;10.55;2.15;;;;;;;13.00;100.00;101240.41;5072077;28;20048;-52
2022/06/20 03:38:35;;;;;;;5.05;1.50;;;;;;;13.02;100.00;101242.00;5072285;28;20051;-48
2022/06/20 03:41:04;;;;;;;7.75;1.77;;;;;;;13.00;100.00;101251.81;5075177;28;20048;-49
2022/06/20 03:43:34;;;;;;;8.57;1.70;;;;;;;12.98;100.00;101259.00;5072331;28;20056;-50
2022/06/20 03:46:10;;;;;;;9.13;1.85;;;;;;;13.01;100.00;101256.13;5071795;28;20526;-47
2022/06/20 03:49:00;;;;;;;6.72;1.90;;;;;;;13.06;100.00;101254.97;5076108;28;20044;-46
2022/06/20 03:51:33;;;;;;;11.98;1.98;;;;;;;13.00;100.00;101248.34;5076199;28;20492;-46
2022/06/20 03:54:08;;;;;;;6.07;1.50;;;;;;;13.01;100.00;101242.94;5075717;28;20086;-50
2022/06/20 03:56:42;;;;;;;6.40;1.50;;;;;;;13.00;100.00;101246.53;5075769;28;20150;-49
2022/06/20 03:59:18;;;;;;;7.43;1.70;;;;;;;12.97;100.00;101241.47;5075553;28;20047;-50
2022/06/20 04:01:54;;;;;;;9.48;1.88;;;;;;;12.93;100.00;101234.69;5073714;28;20518;-50
2022/06/20 04:04:26;;;;;;;6.30;1.63;;;;;;;12.89;100.00;101232.41;5072249;28;20106;-51
2022/06/20 04:06:58;;;;;;;8.88;2.17;;;;;;;12.87;100.00;101235.16;5073583;28;20048;-49
2022/06/20 04:12:24;;;;;;;9.00;1.90;;;;;;;12.78;100.00;101252.44;5071622;28;20099;-52
2022/06/20 04:15:00;;;;;;;6.50;1.80;;;;;;;12.83;100.00;101254.78;5074069;28;20561;-47
2022/06/20 04:20:26;;;;;;;5.90;1.98;;;;;;;12.93;100.00;101276.09;5075338;28;20114;-46
2022/06/20 04:22:57;;;;;;;7.18;1.73;;;;;;;12.91;100.00;101276.22;5073718;28;20105;-48
2022/06/20 04:25:31;;;;;;;9.82;2.00;;;;;;;12.96;100.00;101282.00;5075219;28;20049;-51
2022/06/20 04:28:10;;;;;;;9.32;1.90;;;;;;;13.03;100.00;101287.72;5074961;28;20055;-51
2022/06/20 04:30:44;;;;;;;11.32;2.10;;;;;;;13.05;100.00;101293.75;5072266;28;20068;-49
2022/06/20 04:33:19;;;;;;;9.30;2.10;;;;;;;13.13;100.00;101286.16;5071320;28;20052;-48
2022/06/20 04:36:04;;;;;;;7.55;2.40;;;;;;;13.21;100.00;101290.91;5074655;28;20472;-49
2022/06/20 04:38:39;;;;;;;6.65;2.53;;;;;;;13.25;100.00;101299.44;5074405;28;20045;-48
2022/06/20 04:41:19;;;;;;;9.50;2.17;;;;;;;13.27;100.00;101308.94;5073678;28;20087;-47
2022/06/20 04:43:53;;;;;;;10.38;2.13;;;;;;;13.33;100.00;101311.19;5073237;28;20044;-48
2022/06/20 04:46:26;;;;;;;9.25;2.47;;;;;;;13.33;100.00;101316.47;5073426;28;20476;-49
2022/06/20 04:48:56;;;;;;;10.10;2.25;;;;;;;13.40;100.00;101311.59;5073226;28;20106;-50
2022/06/20 04:51:33;;;;;;;9.15;2.45;;;;;;;13.46;100.00;101310.34;5073081;28;20471;-52
2022/06/20 04:54:02;;;;;;;6.82;2.03;;;;;;;13.55;100.00;101317.63;5070272;28;20055;-51
2022/06/20 04:56:30;;;;;;;10.55;2.50;;;;;;;13.58;100.00;101324.50;5070238;28;20068;-48
2022/06/20 04:59:03;;;;;;;5.55;1.88;;;;;;;13.61;100.00;101313.72;5072736;28;20056;-50
2022/06/20 05:01:34;;;;;;;9.82;1.80;;;;;;;13.68;100.00;101326.38;5071930;28;20071;-49
2022/06/20 05:04:16;;;;;;;9.00;1.88;;;;;;;13.73;100.00;101326.06;5072778;28;20522;-52
2022/06/20 05:06:44;;;;;;;8.80;2.22;;;;;;;13.75;100.00;101336.53;5071761;28;20044;-46
2022/06/20 05:09:19;;;;;;;7.90;1.98;;;;;;;13.76;100.00;101339.06;5069969;28;20450;-50
2022/06/20 05:11:51;;;;;;;10.13;2.10;;;;;;;13.78;100.00;101338.94;5071152;28;20071;-51
2022/06/20 05:14:24;;;;;;;6.80;2.22;;;;;;;13.80;100.00;101345.00;5069368;28;20143;-53
2022/06/20 05:17:00;;;;;;;9.20;2.25;;;;;;;13.91;100.00;101347.69;5068435;28;20101;-49
2022/06/20 05:19:35;;;;;;;10.00;2.20;;;;;;;13.97;100.00;101344.59;5073122;28;20396;-50
2022/06/20 05:22:11;;;;;;;10.10;2.17;;;;;;;14.12;99.96;101349.75;5071379;28;20511;-48
2022/06/20 05:24:43;;;;;;;6.03;1.98;;;;;;;14.18;99.57;101347.50;5069320;28;20507;-51
2022/06/20 05:27:18;;;;;;;8.10;1.90;;;;;;;14.31;99.22;101338.69;5071023;28;20075;-46
2022/06/20 05:29:50;;;;;;;8.38;2.10;;;;;;;14.43;97.92;101348.38;5072861;28;20044;-49
2022/06/20 05:32:24;;;;;;;9.68;2.55;;;;;;;14.44;97.05;101350.06;5072849;28;20048;-48
2022/06/20 05:35:00;;;;;;;8.02;1.90;;;;;;;14.46;96.80;101342.84;5073203;28;20048;-50
2022/06/20 05:37:34;;;;;;;8.93;2.38;;;;;;;14.60;95.36;101348.91;5072906;28;20090;-48
2022/06/20 05:40:11;;;;;;;8.26;1.74;;;;;;;14.51;94.55;101350.47;5058753;28;1132799;-47
2022/06/20 05:42:39;;;;;;;5.60;1.73;;;;;;;14.56;94.24;101361.56;5070900;28;20048;-49
2022/06/20 05:45:15;;;;;;;11.23;2.17;;;;;;;14.67;94.24;101352.81;5070838;28;20432;-50
2022/06/20 05:47:48;;;;;;;7.15;1.70;;;;;;;14.69;92.40;101358.88;5070116;28;20102;-45
2022/06/20 05:50:30;;;;;;;6.68;1.63;;;;;;;14.76;91.67;101348.66;5072936;28;20063;-49
2022/06/20 05:53:00;;;;;;;8.35;1.90;;;;;;;14.83;91.78;101358.69;5073208;28;20045;-47
2022/06/20 05:55:34;;;;;;;10.95;2.05;;;;;;;14.82;91.13;101372.88;5073269;28;20127;-48
2022/06/20 05:58:03;;;;;;;9.98;1.90;;;;;;;14.85;91.68;101377.09;5073363;28;20098;-47
2022/06/20 06:00:33;;;;;;;9.48;1.67;;;;;;;14.90;91.49;101385.53;5073506;28;20508;-48
2022/06/20 06:03:07;;;;;;;8.93;2.17;;;;;;;14.91;91.15;101381.91;5068208;28;20049;-46
2022/06/20 06:05:39;;;;;;;7.78;1.70;;;;;;;15.06;91.48;101377.28;5070636;28;20052;-48
2022/06/20 06:08:17;;;;;;;8.60;1.70;;;;;;;15.05;88.36;101370.28;5071332;28;20149;-49
2022/06/20 06:11:13;;;;;;;5.75;1.65;;;;;;;15.16;89.13;101378.28;5069702;28;20450;-49
2022/06/20 06:13:48;;;;;;;8.23;2.03;;;;;;;15.17;90.29;101376.47;5073380;28;20119;-48
2022/06/20 06:19:15;;;;;;;7.90;1.80;;;;;;;15.36;87.86;101382.03;5069847;28;20044;-48
2022/06/20 06:21:47;;;;;;;6.22;1.70;;;;;;;15.44;88.27;101383.25;5070193;28;20519;-47
2022/06/20 06:24:20;;;;;;;8.10;2.00;;;;;;;15.58;87.85;101387.50;5072778;28;20044;-47
2022/06/20 06:26:51;;;;;;;5.35;1.58;;;;;;;15.60;86.67;101386.41;5072926;28;20052;-48
2022/06/20 06:29:24;;;;;;;9.32;1.90;;;;;;;15.73;85.51;101391.59;5072660;28;20446;-45
2022/06/20 06:31:58;;;;;;;11.27;2.50;;;;;;;15.97;86.12;101388.84;5068415;28;20060;-49
2022/06/20 06:34:40;;;;;;;8.70;1.95;;;;;;;16.06;86.71;101387.28;5070328;28;20055;-48
2022/06/20 06:37:14;;;;;;;9.18;1.75;;;;;;;16.14;86.75;101389.31;5072659;28;20052;-49
2022/06/20 06:39:51;;;;;;;7.47;1.52;;;;;;;16.19;85.75;101395.91;5072617;28;20032;-45
2022/06/20 06:42:21;;;;;;;7.03;2.33;;;;;;;16.28;85.78;101391.69;5072162;28;20056;-47
2022/06/20 06:44:51;;;;;;;5.20;1.50;;;;;;;16.49;83.21;101404.19;5072491;28;20076;-48
2022/06/20 06:47:25;;;;;;;7.25;1.95;;;;;;;16.43;82.62;101410.84;5072916;28;20483;-47
2022/06/20 06:49:59;;;;;;;7.00;1.80;;;;;;;16.58;80.15;101400.78;5070450;28;20041;-50
2022/06/20 06:52:36;;;;;;;8.85;1.95;;;;;;;16.73;81.07;101409.31;5069248;28;20110;-49
2022/06/20 06:55:25;;;;;;;9.52;2.22;;;;;;;16.94;78.90;101409.38;5072127;28;20071;-50
2022/06/20 06:58:00;;;;;;;9.52;2.17;;;;;;;17.18;78.66;101406.47;5070750;28;20041;-46
2022/06/20 07:00:34;;;;;;;10.88;2.15;;;;;;;17.48;77.58;101404.84;5066179;28;20063;-49
2022/06/20 07:03:09;;;;;;;5.72;1.60;;;;;;;17.70;74.96;101393.19;5067697;28;20060;-50
2022/06/20 07:05:41;;;;;;;9.30;1.85;;;;;;;17.97;74.22;101391.78;5055960;28;20090;-49
2022/06/20 07:08:14;;;;;;;5.18;1.63;;;;;;;18.16;73.07;101393.66;5072329;28;20045;-49
2022/06/20 07:10:48;;;;;;;7.00;1.52;;;;;;;18.26;71.56;101393.69;5072161;28;20094;-53
2022/06/20 07:13:23;;;;;;;8.70;1.80;;;;;;;18.39;72.96;101401.41;5071979;28;20352;-53
2022/06/20 07:15:57;;;;;;;5.03;1.50;;;;;;;18.44;70.69;101403.66;5071868;28;20049;-51
2022/06/20 07:18:41;;;;;;;7.07;1.95;;;;;;;18.28;70.67;101414.84;5072274;28;20075;-51
2022/06/20 07:21:12;;;;;;;6.25;2.08;;;;;;;18.27;70.57;101411.34;5071886;28;20610;-46
2022/06/20 07:23:45;;;;;;;7.95;1.77;;;;;;;18.13;71.52;101411.72;5072069;28;20517;-47
2022/06/20 07:26:16;;;;;;;5.95;1.98;;;;;;;18.10;72.26;101406.66;5071649;28;20063;-48
2022/06/20 07:28:48;;;;;;;7.00;2.33;;;;;;;18.25;72.92;101405.28;5071844;28;20048;-48
2022/06/20 07:31:21;;;;;;;8.68;2.30;;;;;;;18.28;72.63;101414.84;5071514;28;20438;-51
2022/06/20 07:33:52;;;;;;;8.32;2.30;;;;;;;18.51;71.75;101410.13;5071054;28;20049;-53
2022/06/20 07:36:27;;;;;;;8.85;1.80;;;;;;;18.46;69.93;101409.69;5072017;28;20057;-48
2022/06/20 07:39:02;;;;;;;11.45;2.47;;;;;;;18.41;69.54;101415.44;5070801;28;20119;-52
2022/06/20 07:41:38;;;;;;;7.25;2.00;;;;;;;18.39;69.10;101412.03;5071902;28;20510;-52
2022/06/20 07:44:11;;;;;;;8.32;1.90;;;;;;;18.19;70.47;101413.84;5071772;28;20575;-49
2022/06/20 07:46:45;;;;;;;6.68;2.00;;;;;;;18.21;70.00;101414.53;5071765;28;20593;-49
2022/06/20 07:49:18;;;;;;;7.90;2.10;;;;;;;18.47;68.05;101408.69;5071917;28;20503;-48
2022/06/20 07:51:49;;;;;;;;;;;;;;;18.77;68.52;101409.56;5072388;28;20053;-51
2022/06/20 07:54:22;;;;;;;5.32;1.70;;;;;;;18.89;63.68;101400.50;5071824;28;19920;-51
2022/06/20 07:56:58;;;;;;;5.15;1.88;;;;;;;19.04;61.84;101403.56;5071687;28;20056;-51
2022/06/20 07:59:32;;;;;;;7.85;1.95;;;;;;;19.36;63.12;101402.38;5071502;28;20044;-51
2022/06/20 08:02:06;;;;;;;6.82;1.95;;;;;;;19.75;62.75;101400.41;5071762;28;20446;-49
2022/06/20 08:04:37;;;;;;;11.35;2.65;;;;;;;19.49;61.05;101407.41;5071432;28;20048;-49
2022/06/20 08:07:11;;;;;;;8.57;2.40;;;;;;;19.00;62.66;101411.00;5071806;28;20056;-51
2022/06/20 08:09:46;;;;;;;6.47;2.33;;;;;;;18.91;62.11;101411.88;5071550;28;20067;-47
2022/06/20 08:12:40;;;;;;;6.22;2.50;;;;;;;18.57;63.53;101412.25;5071693;28;20384;-50
2022/06/20 08:15:15;;;;;;;5.80;2.10;;;;;;;18.78;60.62;101413.94;5071534;28;20123;-48
2022/06/20 08:17:43;;;;;;;8.07;2.20;;;;;;;19.11;61.36;101410.00;5071400;28;20086;-47
2022/06/20 08:20:12;;;;;;;7.05;2.25;;;;;;;19.07;58.69;101408.59;5071238;28;20060;-48
2022/06/20 08:22:47;;;;;;;5.72;1.70;;;;;;;19.06;56.87;101405.09;5071362;28;20045;-52
2022/06/20 08:25:22;;;;;;;7.55;1.80;;;;;;;18.73;54.86;101409.88;5070782;28;20052;-50
2022/06/20 08:27:55;;;;;;;7.53;2.08;;;;;;;18.70;55.15;101415.44;5074978;28;20055;-47
2022/06/20 08:30:33;;;;;;;6.72;1.83;;;;;;;18.99;57.64;101425.31;5074872;28;20041;-51
2022/06/20 08:33:07;;;;;;;7.43;1.85;;;;;;;19.18;55.36;101426.28;5075456;28;20480;-52
2022/06/20 08:35:49;;;;;;;10.48;2.60;;;;;;;19.48;57.14;101425.22;5074788;28;20033;-52
2022/06/20 08:38:28;;;;;;;7.13;2.60;;;;;;;19.76;55.06;101428.78;5074518;28;20045;-51
2022/06/20 08:41:29;;;;;;;6.30;2.15;;;;;;;19.65;53.87;101420.97;5074452;28;20048;-50
2022/06/20 08:44:36;;;;;;;7.60;2.13;;;;;;;19.74;51.88;101429.91;5074672;28;20044;-52
2022/06/20 08:47:42;;;;;;;8.38;2.28;;;;;;;19.56;51.08;101424.50;5062187;28;20106;-51
2022/06/20 08:50:50;;;;;;;6.72;2.05;;;;;;;20.04;53.80;101431.53;5075006;28;20047;-50
2022/06/20 08:53:54;;;;;;;9.43;2.20;;;;;;;20.34;53.16;101445.56;5069785;28;20056;-49
2022/06/20 08:56:38;;;;;;;6.28;2.22;;;;;;;20.58;51.09;101439.63;5074739;28;20498;-48
2022/06/20 08:59:17;;;;;;;10.40;2.08;;;;;;;20.74;51.12;101444.34;5074607;28;20442;-52
2022/06/20 09:01:57;;;;;;;10.27;2.35;;;;;;;21.00;50.61;101454.25;5074198;28;20063;-49
2022/06/20 09:04:40;;;;;;;7.20;1.73;;;;;;;21.26;50.44;101450.78;5074447;28;20076;-52
2022/06/20 09:07:41;;;;;;;7.97;2.40;;;;;;;21.53;49.16;101449.00;5074444;28;20045;-51
2022/06/20 09:10:34;;;;;;;7.05;1.98;;;;;;;21.27;46.99;101445.28;5074143;28;20356;-51
2022/06/20 09:13:32;;;;;;;6.57;1.90;;;;;;;21.59;45.33;101446.53;5074200;28;20055;-51
2022/06/20 09:16:11;;;;;;;5.45;1.55;;;;;;;21.67;46.40;101450.28;5074232;28;20052;-52
2022/06/20 09:18:54;;;;;;;6.60;2.03;;;;;;;21.37;45.81;101460.41;5073734;28;20048;-50
2022/06/20 09:21:32;;;;;;;6.15;1.70;;;;;;;21.89;45.08;101452.38;5074108;28;20048;-51
2022/06/20 09:24:14;;;;;;;9.05;1.92;;;;;;;22.03;44.76;101461.66;5074146;28;20056;-49
2022/06/20 09:26:50;;;;;;;5.78;1.88;;;;;;;22.12;45.08;101462.53;5073768;28;20048;-47
2022/06/20 09:29:36;;;;;;;8.95;2.22;;;;;;;22.26;44.78;101451.22;5073905;28;20665;-48
2022/06/20 09:32:42;;;;;;;8.35;1.95;;;;;;;22.20;44.96;101456.38;5074087;28;20044;-50
2022/06/20 09:35:28;;;;;;;5.60;1.80;;;;;;;22.36;43.64;101456.47;5073651;28;20380;-52
2022/06/20 09:38:25;;;;;;;6.63;1.80;;;;;;;22.41;43.60;101454.09;5071133;28;20068;-50
2022/06/20 09:41:01;;;;;;;6.90;1.90;;;;;;;22.75;43.59;101455.03;5073495;28;20045;-50
2022/06/20 09:43:42;;;;;;;7.07;2.00;;;;;;;22.82;43.43;101460.56;5073848;28;20099;-47
2022/06/20 09:46:22;;;;;;;9.00;1.98;;;;;;;22.82;42.88;101460.56;5073524;28;20044;-48
2022/06/20 09:48:58;;;;;;;7.25;2.22;;;;;;;22.48;43.71;101458.81;5073467;28;20036;-49
2022/06/20 09:51:37;;;;;;;7.00;2.15;;;;;;;22.76;44.78;101457.53;5072442;28;20044;-49
2022/06/20 09:54:15;;;;;;;6.03;1.80;;;;;;;22.89;43.73;101461.56;5073507;28;20052;-52
2022/06/20 09:56:52;;;;;;;9.00;2.00;;;;;;;22.62;43.61;101458.19;5073204;28;20068;-48
2022/06/20 09:59:31;;;;;;;8.32;2.05;;;;;;;22.36;43.09;101456.47;5073244;28;20438;-52
2022/06/20 10:02:08;;;;;;;5.70;2.00;;;;;;;22.88;43.47;101460.75;5073194;28;20084;-51
2022/06/20 10:04:47;;;;;;;5.47;1.90;;;;;;;23.18;43.28;101466.50;5073291;28;20372;-48
2022/06/20 10:07:35;;;;;;;;;;;;;;;23.48;44.77;101463.25;5073726;28;20041;-49
2022/06/20 10:10:13;;;;;;;6.78;1.90;;;;;;;23.72;42.73;101465.06;5073394;28;19920;-52
2022/06/20 10:12:48;;;;;;;7.47;2.20;;;;;;;23.96;41.77;101464.19;5073084;28;20396;-51
2022/06/20 10:15:29;;;;;;;7.30;1.60;;;;;;;24.29;38.55;101458.66;5073192;28;20123;-50
2022/06/20 10:18:05;;;;;;;7.22;1.80;;;;;;;24.42;39.27;101458.94;5070485;28;20060;-51
2022/06/20 10:20:42;;;;;;;5.95;1.60;;;;;;;24.55;37.30;101461.03;5069376;28;20400;-51
2022/06/20 10:23:39;;;;;;;6.30;1.77;;;;;;;24.25;38.71;101454.66;5072219;28;20056;-48
2022/06/20 10:26:36;;;;;;;6.22;1.95;;;;;;;24.32;38.64;101471.75;5071722;28;20048;-52
2022/06/20 10:29:15;;;;;;;8.48;1.95;;;;;;;24.26;38.16;101477.84;5046069;28;20056;-48
2022/06/20 10:31:47;;;;;;;5.55;1.77;;;;;;;24.18;37.25;101481.38;5068129;28;20049;-52
2022/06/20 10:34:26;;;;;;;5.70;2.03;;;;;;;23.68;36.81;101485.22;5069938;28;20052;-52
2022/06/20 10:37:04;;;;;;;6.55;1.83;;;;;;;23.92;37.77;101484.34;5072593;28;20045;-50
2022/06/20 10:39:45;;;;;;;6.47;1.85;;;;;;;24.26;38.74;101488.59;5070300;28;20674;-49
2022/06/20 10:42:24;;;;;;;6.35;1.50;;;;;;;24.05;37.63;101486.47;5068726;28;20529;-45
2022/06/20 10:45:18;;;;;;;4.50;1.30;;;;;;;24.11;37.58;101483.09;5072500;28;20048;-45
2022/06/20 10:48:02;;;;;;;5.40;1.70;;;;;;;24.61;38.06;101489.94;5072251;28;20098;-46
2022/06/20 10:50:38;;;;;;;5.38;1.60;;;;;;;24.86;35.77;101470.94;5072344;28;20055;-47
2022/06/20 10:53:19;;;;;;;5.80;1.23;;;;;;;24.56;33.67;101489.59;5071426;28;20044;-51
2022/06/20 10:55:52;;;;;;;3.92;1.20;;;;;;;24.56;34.41;101478.84;5068761;28;20147;-46
2022/06/20 10:58:45;;;;;;;4.90;1.30;;;;;;;24.78;35.25;101484.44;5070693;28;20044;-46
2022/06/20 11:01:19;;;;;;;5.65;1.40;;;;;;;24.24;35.06;101491.44;5072086;28;20105;-47
2022/06/20 11:04:09;;;;;;;6.05;1.40;;;;;;;23.98;35.83;101483.63;5072454;28;20051;-53
2022/06/20 11:06:55;;;;;;;7.50;1.33;;;;;;;23.69;36.53;101489.56;5072470;28;20044;-51
2022/06/20 11:09:34;;;;;;;4.10;1.17;;;;;;;24.50;36.30;101493.00;5072301;28;20127;-51
2022/06/20 11:12:10;;;;;;;6.43;1.40;;;;;;;25.24;34.57;101494.38;5072302;28;20134;-47
2022/06/20 11:14:47;;;;;;;7.45;1.30;;;;;;;25.31;32.22;101498.00;5072134;28;20063;-47
2022/06/20 11:17:24;;;;;;;3.97;1.38;;;;;;;25.17;33.40;101491.56;5072063;28;20094;-50
2022/06/20 11:20:00;;;;;;;5.55;1.38;;;;;;;24.79;33.19;101496.91;5068785;28;20558;-48
2022/06/20 11:22:38;;;;;;;2.90;1.10;;;;;;;24.98;33.50;101504.47;5069932;28;20164;-49
2022/06/20 11:25:21;;;;;;;4.35;1.15;;;;;;;25.50;34.54;101498.53;5069492;28;20052;-52
2022/06/20 11:28:08;;;;;;;3.22;1.25;;;;;;;25.32;32.62;101497.00;5067892;28;20056;-48
2022/06/20 11:30:44;;;;;;;5.63;1.20;;;;;;;25.08;33.52;101500.72;5070418;28;20055;-51
2022/06/20 11:36:14;;;;;;;4.82;1.40;;;;;;;24.97;34.72;101504.66;5071013;28;20053;-49
2022/06/20 11:38:58;;;;;;;6.95;1.40;;;;;;;24.64;34.14;101507.56;5071257;28;20068;-50
2022/06/20 11:41:34;;;;;;;5.03;1.50;;;;;;;24.62;34.52;101521.19;5071641;28;20068;-47
2022/06/20 11:44:31;;;;;;;5.78;1.40;;;;;;;23.85;35.40;101515.56;5070202;28;20075;-52
2022/06/20 11:47:29;;;;;;;6.88;1.70;;;;;;;23.97;37.44;101516.91;5066530;28;20048;-50
2022/06/20 11:50:20;;;;;;;7.82;1.75;;;;;;;23.98;37.89;101523.94;5069367;28;20060;-52
2022/06/20 11:52:57;;;;;;;4.68;1.48;;;;;;;23.86;37.49;101530.63;5067971;28;20071;-48
2022/06/20 11:55:34;;;;;;;6.57;1.60;;;;;;;24.15;36.88;101519.34;5067916;28;20060;-48
2022/06/20 11:58:13;;;;;;;5.15;1.50;;;;;;;24.63;35.82;101512.09;5071323;28;20072;-52
2022/06/20 12:00:46;;;;;;;5.95;1.55;;;;;;;24.78;36.60;101522.94;5073057;28;20049;-53
2022/06/20 12:03:22;;;;;;;5.07;1.35;;;;;;;24.04;36.88;101528.63;5074416;28;20080;-47
2022/06/20 12:06:00;;;;;;;5.10;1.70;;;;;;;23.65;37.53;101531.19;5075928;28;20048;-47
2022/06/20 12:08:48;;;;;;;6.07;1.83;;;;;;;23.92;37.85;101532.69;5074101;28;20070;-49
2022/06/20 12:11:41;;;;;;;4.90;1.30;;;;;;;24.37;36.71;101530.34;5071799;28;20048;-49
2022/06/20 12:14:26;;;;;;;5.05;1.10;;;;;;;24.88;34.67;101525.41;5075845;28;20052;-51
2022/06/20 12:17:08;;;;;;;5.05;1.50;;;;;;;25.09;34.85;101519.38;5075606;28;20045;-50
2022/06/20 12:25:40;;;;;;;5.80;1.40;;;;;;;24.59;35.27;101518.81;5070710;28;20041;-46